Time;durP1;ratioP1;P1;durP2;ratioP2;P2;SDS_P1;SDS_P2;PMS_P1;PMS_P2;Temp;Humidity;BMP_temperature;BMP_pressure;BME280_temperature;BME280_humidity;BME280_pressure;Samples;Min_cycle;Max_cycle;Signal;HPM_P1;HPM_P2
2022/03/27 00:01:49;;;;;;;2.95;2.50;;;;;;;;;;5050934;28;20280;-17
2022/03/27 00:04:17;;;;;;;4.35;2.42;;;;;;;;;;5050305;28;20234;-17
2022/03/27 00:06:44;;;;;;;3.53;2.22;;;;;;;;;;5049660;28;20230;-18
2022/03/27 00:09:12;;;;;;;5.85;2.65;;;;;;;;;;5048081;28;20236;-17
2022/03/27 00:11:40;;;;;;;4.07;2.20;;;;;;;;;;5050663;28;20613;-17
2022/03/27 00:14:08;;;;;;;3.53;2.60;;;;;;;;;;5051136;28;20233;-17
2022/03/27 00:16:35;;;;;;;3.67;2.33;;;;;;;;;;5051160;28;20620;-17
2022/03/27 00:19:02;;;;;;;13.05;4.85;;;;;;;;;;5051335;28;20230;-17
2022/03/27 00:21:30;;;;;;;10.32;4.00;;;;;;;;;;5054349;28;20237;-17
2022/03/27 00:23:57;;;;;;;11.70;4.93;;;;;;;;;;5065032;28;20433;-17
2022/03/27 00:26:24;;;;;;;10.90;3.20;;;;;;;;;;5066580;28;20260;-17
2022/03/27 00:28:53;;;;;;;11.75;3.90;;;;;;;;;;5068409;28;20240;-17
2022/03/27 00:31:20;;;;;;;6.15;3.55;;;;;;;;;;5066703;28;20340;-17
2022/03/27 00:33:48;;;;;;;10.55;3.70;;;;;;;;;;5068989;28;20238;-17
2022/03/27 00:36:15;;;;;;;10.80;3.50;;;;;;;;;;5062737;28;20240;-17
2022/03/27 00:38:43;;;;;;;4.43;3.35;;;;;;;;;;5061670;28;20976;-17
2022/03/27 00:41:10;;;;;;;18.80;3.65;;;;;;;;;;5058192;28;20246;-17
2022/03/27 00:43:37;;;;;;;7.45;3.47;;;;;;;;;;5054054;28;20234;-17
2022/03/27 00:46:06;;;;;;;7.30;4.10;;;;;;;;;;5052584;28;20590;-17
2022/03/27 00:48:34;;;;;;;7.30;4.53;;;;;;;;;;5050493;28;20264;-17
2022/03/27 00:51:01;;;;;;;7.85;3.78;;;;;;;;;;5052880;28;20236;-17
2022/03/27 00:53:28;;;;;;;7.38;3.70;;;;;;;;;;5053874;28;20223;-17
2022/03/27 00:55:56;;;;;;;7.35;3.50;;;;;;;;;;5053546;28;20581;-17
2022/03/27 00:58:23;;;;;;;7.10;4.35;;;;;;;;;;5053443;28;20222;-17
2022/03/27 01:01:05;;;;;;;15.88;3.97;;;;;;;;;;5052503;28;20265;-17
2022/03/27 01:03:34;;;;;;;9.95;4.35;;;;;;;;;;5050801;28;20233;-17
2022/03/27 01:06:02;;;;;;;7.78;3.95;;;;;;;;;;5052024;28;20317;-17
2022/03/27 01:11:16;;;;;;;10.55;4.00;;;;;;;;;;5048369;28;20237;-17
2022/03/27 01:13:44;;;;;;;14.00;4.20;;;;;;;;;;5048106;28;20245;-17
2022/03/27 01:16:12;;;;;;;6.72;3.92;;;;;;;;;;5051780;28;20230;-17
2022/03/27 01:18:41;;;;;;;6.72;4.20;;;;;;;;;;5052559;28;20265;-17
2022/03/27 01:21:11;;;;;;;8.20;4.57;;;;;;;;;;5050555;28;20248;-17
2022/03/27 01:23:38;;;;;;;5.82;4.32;;;;;;;;;;5051816;28;20328;-16
2022/03/27 01:26:06;;;;;;;7.57;4.60;;;;;;;;;;5052477;28;20222;-17
2022/03/27 01:28:38;;;;;;;9.82;5.35;;;;;;;;;;5052818;28;20238;-18
2022/03/27 01:31:05;;;;;;;7.30;5.32;;;;;;;;;;5052656;28;20690;-16
2022/03/27 01:33:33;;;;;;;7.65;5.35;;;;;;;;;;5053101;28;20226;-18
2022/03/27 01:36:00;;;;;;;9.40;5.30;;;;;;;;;;5049919;28;21053;-17
2022/03/27 01:38:29;;;;;;;7.35;5.40;;;;;;;;;;5052987;28;20230;-17
2022/03/27 01:40:56;;;;;;;7.25;5.63;;;;;;;;;;5052597;28;20230;-18
2022/03/27 01:43:23;;;;;;;7.05;5.10;;;;;;;;;;5052776;28;20249;-17
2022/03/27 01:45:51;;;;;;;9.88;4.95;;;;;;;;;;5052733;28;20237;-17
2022/03/27 01:48:18;;;;;;;10.30;5.07;;;;;;;;;;5051514;28;20238;-17
2022/03/27 01:50:57;;;;;;;13.13;5.95;;;;;;;;;;5052647;28;20234;-17
2022/03/27 01:53:24;;;;;;;9.02;5.90;;;;;;;;;;5050235;28;20222;-17
2022/03/27 01:55:53;;;;;;;7.97;5.72;;;;;;;;;;5052528;28;20234;-17
2022/03/27 01:58:20;;;;;;;7.78;6.32;;;;;;;;;;5051450;28;21088;-17
2022/03/27 02:00:47;;;;;;;11.82;5.95;;;;;;;;;;5051454;28;20238;-17
2022/03/27 02:03:15;;;;;;;10.27;5.82;;;;;;;;;;5052448;28;20329;-17
2022/03/27 02:05:42;;;;;;;9.18;5.70;;;;;;;;;;5049456;28;20230;-17
2022/03/27 02:08:10;;;;;;;6.57;5.00;;;;;;;;;;5051811;28;20234;-17
2022/03/27 02:10:57;;;;;;;10.82;5.28;;;;;;;;;;5050204;28;20233;-17
2022/03/27 02:13:24;;;;;;;6.88;4.95;;;;;;;;;;5052246;28;20222;-17
2022/03/27 02:15:52;;;;;;;7.93;4.97;;;;;;;;;;5052019;28;20265;-17
2022/03/27 02:18:20;;;;;;;6.75;5.30;;;;;;;;;;5052233;28;20264;-17
2022/03/27 02:20:48;;;;;;;6.53;5.28;;;;;;;;;;5048849;28;20247;-17
2022/03/27 02:23:16;;;;;;;5.82;4.90;;;;;;;;;;5052679;28;20238;-17
2022/03/27 02:25:43;;;;;;;7.65;4.75;;;;;;;;;;5052553;28;20237;-17
2022/03/27 02:28:12;;;;;;;6.50;4.40;;;;;;;;;;5052369;28;20241;-17
2022/03/27 02:30:39;;;;;;;6.47;4.30;;;;;;;;;;5052401;28;20331;-17
2022/03/27 02:33:06;;;;;;;5.43;4.82;;;;;;;;;;5052136;28;20237;-17
2022/03/27 02:35:34;;;;;;;5.07;4.50;;;;;;;;;;5049726;28;20230;-17
2022/03/27 02:38:04;;;;;;;7.88;5.10;;;;;;;;;;5049360;28;20230;-17
2022/03/27 02:40:32;;;;;;;7.47;4.63;;;;;;;;;;5048742;28;20697;-17
2022/03/27 02:43:00;;;;;;;7.78;4.40;;;;;;;;;;5045753;28;20245;-17
2022/03/27 02:45:29;;;;;;;5.00;4.05;;;;;;;;;;5050791;28;20245;-17
2022/03/27 02:47:57;;;;;;;7.13;4.53;;;;;;;;;;5050497;28;20230;-17
2022/03/27 02:50:24;;;;;;;5.22;4.70;;;;;;;;;;5050978;28;20237;-17
2022/03/27 02:52:52;;;;;;;7.07;4.88;;;;;;;;;;5050866;28;20318;-17
2022/03/27 02:55:19;;;;;;;6.40;5.15;;;;;;;;;;5051847;28;20241;-17
2022/03/27 02:57:47;;;;;;;6.82;5.15;;;;;;;;;;5051602;28;20257;-17
2022/03/27 03:00:14;;;;;;;7.28;5.00;;;;;;;;;;5051570;28;20233;-17
2022/03/27 03:02:43;;;;;;;6.30;4.90;;;;;;;;;;5051957;28;20242;-17
2022/03/27 03:05:12;;;;;;;7.28;4.45;;;;;;;;;;5049164;28;20234;-17
2022/03/27 03:07:41;;;;;;;5.88;4.53;;;;;;;;;;5051632;28;20245;-17
2022/03/27 03:10:08;;;;;;;6.90;5.03;;;;;;;;;;5051693;28;20975;-17
2022/03/27 03:12:39;;;;;;;8.90;5.50;;;;;;;;;;5051918;28;20226;-17
2022/03/27 03:15:07;;;;;;;4.95;4.25;;;;;;;;;;5050251;28;20284;-17
2022/03/27 03:17:34;;;;;;;6.53;5.18;;;;;;;;;;5051383;28;20705;-17
2022/03/27 03:20:03;;;;;;;7.18;4.90;;;;;;;;;;5051477;28;20222;-17
2022/03/27 03:22:31;;;;;;;6.32;4.70;;;;;;;;;;5050391;28;20250;-17
2022/03/27 03:24:58;;;;;;;6.78;4.70;;;;;;;;;;5051135;28;20252;-17
2022/03/27 03:27:25;;;;;;;6.10;4.88;;;;;;;;;;5050807;28;20230;-17
2022/03/27 03:29:54;;;;;;;8.52;5.18;;;;;;;;;;5057910;28;21016;-17
2022/03/27 03:32:22;;;;;;;5.28;4.53;;;;;;;;;;5062153;28;20222;-17
2022/03/27 03:34:49;;;;;;;11.05;4.70;;;;;;;;;;5054305;28;20264;-17
2022/03/27 03:37:18;;;;;;;7.07;4.30;;;;;;;;;;5058340;28;20968;-17
2022/03/27 03:39:45;;;;;;;5.25;4.47;;;;;;;;;;5065160;28;20233;-17
2022/03/27 03:42:13;;;;;;;6.07;4.05;;;;;;;;;;5054642;28;20234;-17
2022/03/27 03:44:41;;;;;;;5.65;4.60;;;;;;;;;;5051133;28;20226;-17
2022/03/27 03:47:09;;;;;;;5.97;4.38;;;;;;;;;;5050457;28;20237;-17
2022/03/27 03:49:36;;;;;;;6.82;4.13;;;;;;;;;;5050008;28;20234;-17
2022/03/27 03:52:04;;;;;;;6.30;4.50;;;;;;;;;;5050922;28;20305;-17
2022/03/27 03:54:33;;;;;;;5.30;4.03;;;;;;;;;;5050880;28;20723;-17
2022/03/27 03:57:00;;;;;;;6.95;5.03;;;;;;;;;;5051112;28;20238;-17
2022/03/27 03:59:28;;;;;;;5.80;4.10;;;;;;;;;;5051089;28;20229;-17
2022/03/27 04:01:57;;;;;;;5.75;4.45;;;;;;;;;;5054330;28;20232;-17
2022/03/27 04:04:25;;;;;;;5.45;4.30;;;;;;;;;;5053491;28;20324;-17
2022/03/27 04:06:52;;;;;;;5.40;4.53;;;;;;;;;;5054610;28;20230;-17
2022/03/27 04:09:20;;;;;;;6.43;4.00;;;;;;;;;;5053868;28;20229;-17
2022/03/27 04:11:49;;;;;;;7.80;4.53;;;;;;;;;;5054079;28;20232;-17
2022/03/27 04:14:16;;;;;;;5.93;4.80;;;;;;;;;;5054284;28;20249;-17
2022/03/27 04:16:43;;;;;;;5.93;4.30;;;;;;;;;;5053890;28;20230;-17
2022/03/27 04:19:11;;;;;;;5.30;4.68;;;;;;;;;;5050101;28;20681;-17
2022/03/27 04:21:39;;;;;;;5.43;4.00;;;;;;;;;;5052723;28;20256;-17
2022/03/27 04:24:07;;;;;;;6.85;4.30;;;;;;;;;;5053997;28;20743;-17
2022/03/27 04:26:34;;;;;;;6.40;4.45;;;;;;;;;;5053846;28;21014;-17
2022/03/27 04:29:03;;;;;;;7.53;5.10;;;;;;;;;;5053056;28;20242;-17
2022/03/27 04:31:31;;;;;;;7.25;5.03;;;;;;;;;;5053596;28;20269;-17
2022/03/27 04:33:58;;;;;;;5.47;4.10;;;;;;;;;;5053975;28;20312;-17
2022/03/27 04:36:26;;;;;;;4.97;4.40;;;;;;;;;;5053975;28;20230;-17
2022/03/27 04:38:53;;;;;;;6.63;4.00;;;;;;;;;;5053550;28;20233;-17
2022/03/27 04:41:20;;;;;;;7.38;4.30;;;;;;;;;;5054200;28;20245;-17
2022/03/27 04:43:48;;;;;;;6.20;4.13;;;;;;;;;;5052807;28;20616;-17
2022/03/27 04:46:17;;;;;;;6.07;4.72;;;;;;;;;;5053492;28;20222;-17
2022/03/27 04:48:44;;;;;;;4.28;3.47;;;;;;;;;;5050013;28;20615;-17
2022/03/27 04:51:12;;;;;;;4.28;3.70;;;;;;;;;;5049715;28;20226;-17
2022/03/27 04:53:39;;;;;;;6.13;3.83;;;;;;;;;;5052009;28;20229;-17
2022/03/27 04:56:07;;;;;;;4.00;3.60;;;;;;;;;;5053306;28;20226;-17
2022/03/27 04:58:34;;;;;;;5.40;3.85;;;;;;;;;;5053672;28;20229;-17
2022/03/27 05:01:01;;;;;;;4.18;3.63;;;;;;;;;;5053105;28;20245;-17
2022/03/27 05:03:30;;;;;;;4.47;3.83;;;;;;;;;;5053028;28;20234;-17
2022/03/27 05:05:59;;;;;;;5.32;3.63;;;;;;;;;;5052908;28;20250;-17
2022/03/27 05:08:26;;;;;;;5.88;4.55;;;;;;;;;;5052815;28;20237;-17
2022/03/27 05:10:54;;;;;;;5.57;4.47;;;;;;;;;;5052756;28;20723;-17
2022/03/27 05:13:21;;;;;;;6.53;3.90;;;;;;;;;;5053457;28;20230;-17
2022/03/27 05:15:50;;;;;;;5.38;4.22;;;;;;;;;;5053109;28;20701;-17
2022/03/27 05:18:17;;;;;;;5.70;3.75;;;;;;;;;;5052273;28;20342;-17
2022/03/27 05:20:46;;;;;;;6.03;4.15;;;;;;;;;;5052582;28;20750;-17
2022/03/27 05:23:13;;;;;;;5.05;3.85;;;;;;;;;;5049338;28;20241;-17
2022/03/27 05:25:42;;;;;;;8.60;4.13;;;;;;;;;;5049116;28;21031;-17
2022/03/27 05:28:09;;;;;;;4.65;3.30;;;;;;;;;;5052467;28;20238;-17
2022/03/27 05:30:37;;;;;;;4.88;3.70;;;;;;;;;;5053085;28;20237;-17
2022/03/27 05:33:04;;;;;;;4.25;3.33;;;;;;;;;;5052758;28;20227;-17
2022/03/27 05:35:32;;;;;;;4.95;3.33;;;;;;;;;;5052711;28;20234;-17
2022/03/27 05:38:05;;;;;;;6.22;3.30;;;;;;;;;;5052472;28;20327;-17
2022/03/27 05:40:32;;;;;;;6.28;3.72;;;;;;;;;;5054521;28;20234;-17
2022/03/27 05:42:59;;;;;;;7.68;3.28;;;;;;;;;;5052188;28;20234;-17
2022/03/27 05:45:27;;;;;;;4.70;3.22;;;;;;;;;;5052735;28;20245;-17
2022/03/27 05:47:54;;;;;;;4.55;3.78;;;;;;;;;;5052550;28;20329;-17
2022/03/27 05:50:22;;;;;;;5.85;3.30;;;;;;;;;;5051896;28;20234;-17
2022/03/27 05:52:50;;;;;;;4.53;3.47;;;;;;;;;;5052382;28;20585;-17
2022/03/27 05:55:19;;;;;;;6.25;3.92;;;;;;;;;;5052522;28;20238;-17
2022/03/27 05:57:46;;;;;;;5.60;3.60;;;;;;;;;;5052598;28;21024;-17
2022/03/27 06:00:16;;;;;;;4.95;3.40;;;;;;;;;;5051838;28;20234;-17
2022/03/27 06:02:44;;;;;;;4.22;3.35;;;;;;;;;;5048957;28;20269;-17
2022/03/27 06:05:12;;;;;;;5.93;3.83;;;;;;;;;;5045063;28;20233;-17
2022/03/27 06:07:42;;;;;;;5.47;3.88;;;;;;;;;;5052274;28;20313;-17
2022/03/27 06:10:10;;;;;;;7.57;3.45;;;;;;;;;;5051644;28;20226;-17
2022/03/27 06:12:39;;;;;;;7.72;3.55;;;;;;;;;;5052050;28;20709;-17
2022/03/27 06:15:07;;;;;;;5.03;3.60;;;;;;;;;;5052136;28;20234;-17
2022/03/27 06:17:41;;;;;;;4.97;3.72;;;;;;;;;;5051962;28;21116;-17
2022/03/27 06:20:09;;;;;;;5.63;3.97;;;;;;;;;;5052494;28;21074;-17
2022/03/27 06:22:37;;;;;;;6.05;4.13;;;;;;;;;;5050665;28;20238;-17
2022/03/27 06:25:05;;;;;;;4.65;3.40;;;;;;;;;;5052105;28;20237;-17
2022/03/27 06:27:33;;;;;;;4.65;3.60;;;;;;;;;;5052166;28;20237;-17
2022/03/27 06:30:01;;;;;;;6.53;4.05;;;;;;;;;;5055327;28;20716;-17
2022/03/27 06:32:29;;;;;;;5.22;3.47;;;;;;;;;;5058826;28;20232;-17
2022/03/27 06:34:57;;;;;;;5.28;3.40;;;;;;;;;;5063024;28;20240;-17
2022/03/27 06:37:25;;;;;;;5.85;4.20;;;;;;;;;;5063741;28;20236;-18
2022/03/27 06:39:54;;;;;;;4.38;3.95;;;;;;;;;;5062751;28;20700;-17
2022/03/27 06:42:21;;;;;;;5.28;4.10;;;;;;;;;;5062411;28;20241;-18
2022/03/27 06:44:48;;;;;;;7.30;4.03;;;;;;;;;;5061517;28;20241;-18
2022/03/27 06:47:17;;;;;;;4.43;3.80;;;;;;;;;;5060740;28;20238;-18
2022/03/27 06:49:44;;;;;;;4.82;3.83;;;;;;;;;;5061143;28;21139;-18
2022/03/27 06:52:12;;;;;;;5.22;4.00;;;;;;;;;;5058840;28;20748;-18
2022/03/27 06:54:39;;;;;;;7.10;3.70;;;;;;;;;;5061697;28;20268;-18
2022/03/27 06:57:07;;;;;;;4.95;3.65;;;;;;;;;;5059925;28;20237;-18
2022/03/27 07:05:02;;;;;;;8.90;6.28;;;;;;;;;;5058062;28;20712;-18
2022/03/27 07:07:30;;;;;;;15.05;5.88;;;;;;;;;;5058027;28;20234;-18
2022/03/27 07:09:57;;;;;;;10.77;5.38;;;;;;;;;;5057532;28;20234;-18
2022/03/27 07:12:24;;;;;;;11.05;4.93;;;;;;;;;;5056826;28;20230;-16
2022/03/27 07:14:52;;;;;;;9.20;4.95;;;;;;;;;;5056535;28;20712;-16
2022/03/27 07:17:43;;;;;;;8.63;4.35;;;;;;;;;;5065387;28;20237;-17
2022/03/27 07:20:12;;;;;;;10.35;4.30;;;;;;;;;;5068243;28;20253;-18
2022/03/27 07:22:40;;;;;;;8.63;4.22;;;;;;;;;;5064079;28;20249;-16
2022/03/27 07:25:09;;;;;;;11.50;4.97;;;;;;;;;;5067779;28;20248;-16
2022/03/27 07:27:37;;;;;;;6.03;4.20;;;;;;;;;;5064423;28;20226;-18
2022/03/27 07:30:05;;;;;;;10.45;4.40;;;;;;;;;;5065502;28;20226;-17
2022/03/27 07:32:33;;;;;;;8.88;4.28;;;;;;;;;;5064023;28;20256;-17
2022/03/27 07:35:00;;;;;;;8.88;4.68;;;;;;;;;;5063666;28;20611;-17
2022/03/27 07:37:32;;;;;;;7.45;4.25;;;;;;;;;;5063197;28;20233;-18
2022/03/27 07:40:03;;;;;;;5.25;4.10;;;;;;;;;;5064396;28;20261;-18
2022/03/27 07:42:31;;;;;;;5.68;4.18;;;;;;;;;;5065954;28;20233;-17
2022/03/27 07:44:58;;;;;;;20.02;4.35;;;;;;;;;;5065918;28;20253;-18
2022/03/27 07:47:31;;;;;;;6.00;3.90;;;;;;;;;;5063305;28;20869;-17
2022/03/27 07:49:59;;;;;;;16.77;7.45;;;;;;;;;;5063661;28;20229;-17
2022/03/27 07:52:27;;;;;;;9.98;5.78;;;;;;;;;;5063792;28;20281;-17
2022/03/27 07:54:55;;;;;;;11.00;5.80;;;;;;;;;;5062678;28;20240;-17
2022/03/27 07:57:23;;;;;;;7.72;4.60;;;;;;;;;;5064875;28;20233;-17
2022/03/27 07:59:50;;;;;;;8.55;4.57;;;;;;;;;;5063395;28;20226;-17
2022/03/27 08:02:18;;;;;;;12.15;4.78;;;;;;;;;;5061081;28;20269;-18
2022/03/27 08:04:50;;;;;;;7.63;4.78;;;;;;;;;;5064775;28;20279;-18
2022/03/27 08:07:17;;;;;;;6.85;4.50;;;;;;;;;;5064602;28;20240;-17
2022/03/27 08:09:45;;;;;;;8.20;4.68;;;;;;;;;;5063438;28;20237;-18
2022/03/27 08:12:13;;;;;;;8.63;4.90;;;;;;;;;;5059323;28;20316;-18
2022/03/27 08:14:43;;;;;;;8.95;5.00;;;;;;;;;;5061152;28;20241;-18
2022/03/27 08:17:11;;;;;;;7.40;4.90;;;;;;;;;;5062559;28;20234;-16
2022/03/27 08:19:38;;;;;;;12.85;5.25;;;;;;;;;;5062869;28;20256;-16
2022/03/27 08:22:05;;;;;;;9.30;5.38;;;;;;;;;;5066711;28;21048;-16
2022/03/27 08:24:33;;;;;;;11.10;5.45;;;;;;;;;;5055682;28;20700;-16
2022/03/27 08:27:00;;;;;;;14.50;5.10;;;;;;;;;;5057872;28;20244;-16
2022/03/27 08:29:30;;;;;;;11.70;5.00;;;;;;;;;;5060998;28;20236;-18
2022/03/27 08:31:59;;;;;;;30.73;5.75;;;;;;;;;;5057572;28;20712;-18
2022/03/27 08:34:26;;;;;;;14.55;5.47;;;;;;;;;;5058796;28;20234;-18
2022/03/27 08:36:53;;;;;;;12.77;4.90;;;;;;;;;;5056782;28;20229;-18
2022/03/27 08:39:21;;;;;;;14.32;5.20;;;;;;;;;;5061077;28;20234;-18
2022/03/27 08:41:49;;;;;;;12.90;5.30;;;;;;;;;;5060935;28;20477;-16
2022/03/27 08:44:18;;;;;;;10.88;4.35;;;;;;;;;;5064161;28;20712;-16
2022/03/27 08:46:47;;;;;;;16.33;4.32;;;;;;;;;;5066523;28;20372;-18
2022/03/27 08:49:20;;;;;;;10.60;4.63;;;;;;;;;;5068010;28;20239;-18
2022/03/27 08:51:47;;;;;;;12.35;4.10;;;;;;;;;;5069160;28;20229;-18
2022/03/27 08:54:16;;;;;;;14.23;4.45;;;;;;;;;;5067973;28;20438;-18
2022/03/27 08:56:44;;;;;;;15.80;4.35;;;;;;;;;;5063502;28;20230;-18
2022/03/27 08:59:11;;;;;;;7.80;4.20;;;;;;;;;;5067592;28;20222;-18
2022/03/27 09:01:39;;;;;;;13.15;4.07;;;;;;;;;;5063031;28;20242;-18
2022/03/27 09:04:07;;;;;;;11.10;4.40;;;;;;;;;;5063848;28;20681;-18
2022/03/27 09:06:35;;;;;;;8.48;3.80;;;;;;;;;;5064105;28;20273;-18
2022/03/27 09:09:03;;;;;;;15.07;4.30;;;;;;;;;;5059017;28;20604;-18
2022/03/27 09:11:31;;;;;;;12.23;6.53;;;;;;;;;;5053309;28;20237;-18
2022/03/27 09:13:58;;;;;;;8.95;4.90;;;;;;;;;;5052657;28;20232;-18
2022/03/27 09:16:25;;;;;;;17.85;5.38;;;;;;;;;;5053589;28;21066;-18
2022/03/27 09:18:54;;;;;;;15.95;4.68;;;;;;;;;;5052626;28;20230;-18
2022/03/27 09:21:22;;;;;;;15.73;5.18;;;;;;;;;;5051823;28;20423;-18
2022/03/27 09:23:53;;;;;;;13.15;4.20;;;;;;;;;;5053092;28;20232;-18
2022/03/27 09:26:21;;;;;;;13.07;4.40;;;;;;;;;;5052019;28;20241;-18
2022/03/27 09:28:49;;;;;;;12.45;4.30;;;;;;;;;;5052549;28;20241;-18
2022/03/27 09:31:26;;;;;;;10.50;4.50;;;;;;;;;;5052680;28;20230;-17
2022/03/27 09:33:54;;;;;;;8.45;3.67;;;;;;;;;;5052860;28;20232;-18
2022/03/27 09:36:23;;;;;;;11.95;4.55;;;;;;;;;;5052932;28;20238;-17
2022/03/27 09:38:57;;;;;;;14.52;6.15;;;;;;;;;;5053428;28;20234;-17
2022/03/27 09:41:35;;;;;;;12.77;6.45;;;;;;;;;;5052386;28;20237;-17
2022/03/27 09:44:03;;;;;;;18.65;6.22;;;;;;;;;;5056454;28;20944;-17
2022/03/27 09:46:45;;;;;;;17.75;5.65;;;;;;;;;;5054601;28;20234;-17
2022/03/27 09:49:12;;;;;;;14.30;5.05;;;;;;;;;;5048955;28;20721;-17
2022/03/27 09:51:51;;;;;;;16.15;5.25;;;;;;;;;;5051298;28;20237;-17
2022/03/27 09:54:18;;;;;;;16.80;4.95;;;;;;;;;;5048584;28;20232;-17
2022/03/27 09:56:45;;;;;;;7.55;3.90;;;;;;;;;;5051933;28;20734;-17
2022/03/27 09:59:25;;;;;;;7.00;4.22;;;;;;;;;;5048560;28;20241;-17
2022/03/27 10:01:52;;;;;;;12.75;3.92;;;;;;;;;;5050015;28;20230;-17
2022/03/27 10:04:20;;;;;;;9.65;4.25;;;;;;;;;;5052674;28;20234;-17
2022/03/27 10:06:47;;;;;;;12.93;4.00;;;;;;;;;;5052419;28;20238;-17
2022/03/27 10:09:16;;;;;;;7.60;3.83;;;;;;;;;;5052030;28;20238;-17
2022/03/27 10:11:43;;;;;;;8.88;3.65;;;;;;;;;;5052720;28;20230;-17
2022/03/27 10:14:11;;;;;;;4.90;3.42;;;;;;;;;;5049228;28;20218;-17
2022/03/27 10:16:39;;;;;;;7.53;3.55;;;;;;;;;;5051549;28;20233;-18
2022/03/27 10:19:07;;;;;;;7.63;4.15;;;;;;;;;;5052121;28;20230;-18
2022/03/27 10:21:35;;;;;;;5.65;3.67;;;;;;;;;;5052164;28;20242;-18
2022/03/27 10:24:06;;;;;;;6.53;3.90;;;;;;;;;;5051603;28;20232;-17
2022/03/27 10:26:38;;;;;;;7.22;4.40;;;;;;;;;;5052083;28;20218;-17
2022/03/27 10:29:05;;;;;;;9.80;4.63;;;;;;;;;;5052405;28;21050;-17
2022/03/27 10:31:32;;;;;;;6.45;4.32;;;;;;;;;;5051890;28;20226;-17
2022/03/27 10:34:00;;;;;;;6.85;3.72;;;;;;;;;;5051811;28;20230;-18
2022/03/27 10:36:31;;;;;;;5.93;4.00;;;;;;;;;;5051420;28;20689;-17
2022/03/27 10:39:01;;;;;;;5.47;3.50;;;;;;;;;;5052466;28;20238;-17
2022/03/27 10:41:30;;;;;;;7.75;4.07;;;;;;;;;;5051158;28;20226;-17
2022/03/27 10:44:01;;;;;;;7.95;3.45;;;;;;;;;;5052092;28;20237;-17
2022/03/27 10:46:29;;;;;;;5.22;3.78;;;;;;;;;;5051131;28;20246;-17
2022/03/27 10:49:09;;;;;;;8.48;4.20;;;;;;;;;;5051835;28;20273;-17
2022/03/27 10:51:37;;;;;;;4.65;3.10;;;;;;;;;;5051834;28;20241;-17
2022/03/27 10:54:05;;;;;;;5.93;3.40;;;;;;;;;;5051662;28;20230;-17
2022/03/27 10:56:34;;;;;;;6.75;3.35;;;;;;;;;;5050900;28;20241;-17
2022/03/27 10:59:10;;;;;;;4.75;3.20;;;;;;;;;;5051867;28;20252;-17
2022/03/27 11:01:38;;;;;;;5.22;3.22;;;;;;;;;;5051598;28;20312;-17
2022/03/27 11:04:06;;;;;;;6.82;2.97;;;;;;;;;;5051592;28;20288;-17
2022/03/27 11:06:34;;;;;;;8.80;3.47;;;;;;;;;;5051563;28;20242;-17
2022/03/27 11:09:02;;;;;;;6.25;3.72;;;;;;;;;;5050764;28;20234;-17
2022/03/27 11:12:02;;;;;;;4.55;3.08;;;;;;;;;;5051438;28;20245;-17
2022/03/27 11:14:50;;;;;;;3.95;3.00;;;;;;;;;;5049870;28;20237;-17
2022/03/27 11:17:29;;;;;;;5.60;3.38;;;;;;;;;;5049876;28;20238;-17
2022/03/27 11:19:57;;;;;;;6.57;3.33;;;;;;;;;;5050821;28;20234;-17
2022/03/27 11:22:43;;;;;;;6.40;3.17;;;;;;;;;;5050792;28;20241;-17
2022/03/27 11:25:23;;;;;;;4.30;3.15;;;;;;;;;;5046964;28;20291;-17
2022/03/27 11:27:54;;;;;;;4.72;2.97;;;;;;;;;;5048295;28;21038;-17
2022/03/27 11:30:21;;;;;;;5.15;3.08;;;;;;;;;;5051134;28;20222;-17
2022/03/27 11:33:03;;;;;;;5.00;3.00;;;;;;;;;;5050548;28;20241;-17
2022/03/27 11:35:32;;;;;;;4.38;3.20;;;;;;;;;;5050086;28;20218;-18
2022/03/27 11:38:18;;;;;;;4.53;2.88;;;;;;;;;;5051272;28;20238;-17
2022/03/27 11:40:45;;;;;;;5.65;3.10;;;;;;;;;;5047260;28;20709;-17
2022/03/27 11:43:31;;;;;;;5.40;3.00;;;;;;;;;;5047496;28;20226;-17
2022/03/27 11:45:59;;;;;;;5.65;3.20;;;;;;;;;;5049334;28;20234;-17
2022/03/27 11:48:26;;;;;;;5.13;3.03;;;;;;;;;;5051673;28;21000;-17
2022/03/27 11:50:55;;;;;;;3.75;2.72;;;;;;;;;;5050687;28;20366;-17
2022/03/27 11:53:32;;;;;;;5.57;3.15;;;;;;;;;;5050704;28;20681;-17
2022/03/27 11:56:08;;;;;;;4.93;2.88;;;;;;;;;;5050884;28;20225;-17
2022/03/27 11:58:36;;;;;;;4.63;2.83;;;;;;;;;;5050272;28;20274;-17
2022/03/27 12:01:04;;;;;;;5.45;2.83;;;;;;;;;;5050857;28;21199;-17
2022/03/27 12:03:31;;;;;;;4.43;2.90;;;;;;;;;;5050215;28;20712;-17
2022/03/27 12:06:06;;;;;;;3.15;2.38;;;;;;;;;;5051085;28;20709;-17
2022/03/27 12:08:34;;;;;;;6.65;3.53;;;;;;;;;;5051005;28;20305;-17
2022/03/27 12:11:05;;;;;;;4.82;3.08;;;;;;;;;;5050598;28;20226;-17
2022/03/27 12:13:36;;;;;;;5.25;3.25;;;;;;;;;;5050144;28;20245;-17
2022/03/27 12:16:04;;;;;;;3.38;2.63;;;;;;;;;;5051128;28;21039;-17
2022/03/27 12:18:35;;;;;;;4.82;3.13;;;;;;;;;;5050954;28;20288;-17
2022/03/27 12:21:03;;;;;;;4.93;3.08;;;;;;;;;;5052433;28;20238;-17
2022/03/27 12:23:32;;;;;;;4.72;2.70;;;;;;;;;;5053133;28;20241;-17
2022/03/27 12:26:00;;;;;;;5.13;3.15;;;;;;;;;;5052341;28;20238;-17
2022/03/27 12:31:20;;;;;;;4.60;2.78;;;;;;;;;;5050234;28;20226;-17
2022/03/27 12:33:47;;;;;;;5.88;3.67;;;;;;;;;;5050710;28;20238;-17
2022/03/27 12:36:21;;;;;;;5.68;2.85;;;;;;;;;;5053844;28;20261;-18
2022/03/27 12:38:49;;;;;;;4.25;2.63;;;;;;;;;;5053812;28;20234;-18
2022/03/27 12:41:31;;;;;;;2.92;2.47;;;;;;;;;;5053853;28;20230;-18
2022/03/27 12:43:59;;;;;;;9.32;3.33;;;;;;;;;;5053123;28;20226;-17
2022/03/27 12:46:27;;;;;;;4.72;2.65;;;;;;;;;;5053089;28;20241;-18
2022/03/27 12:48:58;;;;;;;5.03;2.90;;;;;;;;;;5053133;28;20246;-17
2022/03/27 12:51:25;;;;;;;7.15;2.72;;;;;;;;;;5053605;28;20220;-15
2022/03/27 12:54:07;;;;;;;5.32;2.92;;;;;;;;;;5053682;28;20238;-16
2022/03/27 12:56:35;;;;;;;4.95;2.90;;;;;;;;;;5052808;28;20631;-16
2022/03/27 12:59:18;;;;;;;5.75;3.08;;;;;;;;;;5053455;28;20226;-18
2022/03/27 13:01:45;;;;;;;3.33;2.38;;;;;;;;;;5049980;28;20973;-16
2022/03/27 13:04:13;;;;;;;5.78;2.88;;;;;;;;;;5049740;28;20222;-18
2022/03/27 13:06:42;;;;;;;5.47;2.90;;;;;;;;;;5049268;28;20615;-17
2022/03/27 13:09:12;;;;;;;4.43;2.78;;;;;;;;;;5053237;28;20240;-17
2022/03/27 13:11:40;;;;;;;5.22;3.17;;;;;;;;;;5053527;28;20226;-17
2022/03/27 13:14:08;;;;;;;5.60;2.75;;;;;;;;;;5052488;28;20236;-18
2022/03/27 13:16:35;;;;;;;6.38;2.65;;;;;;;;;;5053470;28;20325;-18
2022/03/27 13:19:03;;;;;;;5.63;2.70;;;;;;;;;;5053235;28;20230;-18
2022/03/27 13:21:31;;;;;;;6.28;2.88;;;;;;;;;;5052277;28;20329;-18
2022/03/27 13:23:58;;;;;;;6.20;3.22;;;;;;;;;;5053172;28;20235;-18
2022/03/27 13:26:27;;;;;;;4.72;2.95;;;;;;;;;;5052696;28;20238;-18
2022/03/27 13:28:54;;;;;;;3.60;2.58;;;;;;;;;;5052907;28;20245;-18
2022/03/27 13:31:22;;;;;;;4.13;2.33;;;;;;;;;;5051924;28;20230;-17
2022/03/27 13:33:49;;;;;;;4.32;2.45;;;;;;;;;;5052557;28;20237;-17
2022/03/27 13:36:17;;;;;;;5.00;2.72;;;;;;;;;;5052822;28;20230;-17
2022/03/27 13:38:44;;;;;;;5.63;2.45;;;;;;;;;;5052418;28;20233;-17
2022/03/27 13:43:57;;;;;;;3.67;2.33;;;;;;;;;;5051276;28;20293;-17
2022/03/27 13:46:25;;;;;;;5.28;2.83;;;;;;;;;;5052609;28;20235;-17
2022/03/27 13:48:52;;;;;;;4.30;2.67;;;;;;;;;;5052891;28;20244;-17
2022/03/27 13:51:19;;;;;;;5.43;3.20;;;;;;;;;;5058629;28;20233;-17
2022/03/27 13:53:47;;;;;;;5.43;2.42;;;;;;;;;;5062219;28;20601;-17
2022/03/27 13:56:14;;;;;;;5.72;2.58;;;;;;;;;;5064098;28;20230;-17
2022/03/27 13:58:41;;;;;;;4.20;2.25;;;;;;;;;;5058881;28;20230;-16
2022/03/27 14:01:10;;;;;;;3.60;2.47;;;;;;;;;;5059709;28;20261;-17
2022/03/27 14:03:38;;;;;;;3.47;1.95;;;;;;;;;;5060243;28;20230;-17
2022/03/27 14:06:05;;;;;;;9.43;4.22;;;;;;;;;;5061297;28;22242;-17
2022/03/27 14:08:33;;;;;;;17.85;5.32;;;;;;;;;;5052390;28;20245;-17
2022/03/27 14:11:01;;;;;;;12.45;5.15;;;;;;;;;;5054703;28;20972;-17
2022/03/27 14:13:28;;;;;;;14.02;5.18;;;;;;;;;;5057404;28;20233;-17
2022/03/27 14:15:55;;;;;;;16.63;5.35;;;;;;;;;;5057085;28;20276;-17
2022/03/27 14:18:24;;;;;;;11.50;5.28;;;;;;;;;;5060158;28;20228;-17
2022/03/27 14:20:51;;;;;;;11.73;5.55;;;;;;;;;;5064474;28;20241;-17
2022/03/27 14:23:19;;;;;;;17.63;5.35;;;;;;;;;;5061863;28;20234;-17
2022/03/27 14:25:46;;;;;;;13.02;5.35;;;;;;;;;;5049615;28;20954;-17
2022/03/27 14:28:14;;;;;;;12.63;5.25;;;;;;;;;;5057208;28;20233;-17
2022/03/27 14:30:41;;;;;;;10.65;4.57;;;;;;;;;;5061694;28;20719;-17
2022/03/27 14:33:09;;;;;;;12.75;5.35;;;;;;;;;;5060267;28;20238;-17
2022/03/27 14:35:38;;;;;;;11.85;5.53;;;;;;;;;;5061187;28;20230;-17
2022/03/27 14:38:06;;;;;;;11.82;5.53;;;;;;;;;;5061719;28;20972;-17
2022/03/27 14:40:36;;;;;;;11.25;4.75;;;;;;;;;;5060637;28;20597;-17
2022/03/27 14:43:04;;;;;;;11.48;4.78;;;;;;;;;;5064453;28;20236;-17
2022/03/27 14:45:34;;;;;;;10.45;4.65;;;;;;;;;;5053038;28;20229;-17
2022/03/27 14:48:02;;;;;;;10.27;4.70;;;;;;;;;;5060261;28;20276;-17
2022/03/27 14:50:29;;;;;;;10.45;4.63;;;;;;;;;;5058361;28;20724;-17
2022/03/27 14:52:58;;;;;;;12.45;4.38;;;;;;;;;;5056818;28;20233;-17
2022/03/27 14:58:11;;;;;;;14.95;4.90;;;;;;;;;;5060013;28;20728;-17
2022/03/27 15:00:38;;;;;;;10.88;5.00;;;;;;;;;;5057353;28;20233;-17
2022/03/27 15:03:06;;;;;;;10.70;4.13;;;;;;;;;;5057099;28;20237;-17
2022/03/27 15:05:34;;;;;;;21.63;5.30;;;;;;;;;;5058171;28;20428;-17
2022/03/27 15:08:04;;;;;;;17.42;4.97;;;;;;;;;;5051426;28;20238;-17